createdAt,value
2022-10-11T00:00:38.968Z,11.14
2022-10-11T00:03:41.474Z,11.08
2022-10-11T00:06:43.886Z,11.02
2022-10-11T00:09:46.469Z,10.95
2022-10-11T00:12:49.055Z,11.02
2022-10-11T00:15:51.631Z,11.03
2022-10-11T00:18:53.863Z,11.00
2022-10-11T00:21:56.367Z,10.98
2022-10-11T00:24:59.211Z,10.95
2022-10-11T00:28:01.750Z,10.82
2022-10-11T00:31:07.287Z,10.79
2022-10-11T00:34:12.029Z,10.70
2022-10-11T00:37:14.210Z,10.58
2022-10-11T00:40:18.622Z,10.53
2022-10-11T00:43:22.856Z,10.47
2022-10-11T00:46:27.683Z,10.38
2022-10-11T00:49:29.860Z,10.37
2022-10-11T00:52:37.878Z,10.27
2022-10-11T00:55:45.098Z,10.18
2022-10-11T00:58:48.544Z,10.11
2022-10-11T01:01:51.356Z,10.08
2022-10-11T01:05:11.326Z,10.09
2022-10-11T01:08:16.549Z,10.12
2022-10-11T01:11:21.171Z,10.08
2022-10-11T01:14:43.674Z,10.02
2022-10-11T01:17:48.887Z,9.96
2022-10-11T01:21:03.478Z,9.93
2022-10-11T01:24:08.593Z,9.95
2022-10-11T01:27:29.471Z,9.87
2022-10-11T01:30:33.079Z,9.80
2022-10-11T01:33:35.622Z,9.75
2022-10-11T01:36:42.672Z,9.75
2022-10-11T01:39:59.985Z,9.72
2022-10-11T01:43:03.545Z,9.72
2022-10-11T01:46:07.848Z,9.72
2022-10-11T01:49:10.997Z,9.70
2022-10-11T01:52:13.221Z,9.67
2022-10-11T01:55:21.881Z,9.60
2022-10-11T01:58:30.231Z,9.51
2022-10-11T02:01:35.542Z,9.48
2022-10-11T02:04:48.343Z,9.48
2022-10-11T02:08:05.846Z,9.49
2022-10-11T02:11:08.279Z,9.52
2022-10-11T02:14:10.510Z,9.51
2022-10-11T02:17:21.845Z,9.48
2022-10-11T02:20:25.745Z,9.45
2022-10-11T02:23:32.612Z,9.45
2022-10-11T02:26:36.186Z,9.42
2022-10-11T02:29:41.549Z,9.37
2022-10-11T02:32:46.571Z,9.35
2022-10-11T02:35:53.525Z,9.31
2022-10-11T02:38:58.101Z,9.32
2022-10-11T02:42:02.436Z,9.29
2022-10-11T02:45:11.151Z,9.27
2022-10-11T02:48:14.307Z,9.24
2022-10-11T02:51:18.183Z,9.21
2022-10-11T02:54:20.667Z,9.22
2022-10-11T02:57:22.901Z,9.27
2022-10-11T03:00:25.904Z,9.39
2022-10-11T03:03:28.120Z,9.47
2022-10-11T03:06:30.933Z,9.62
2022-10-11T03:09:33.299Z,9.68
2022-10-11T03:12:35.822Z,9.72
2022-10-11T03:15:38.040Z,9.72
2022-10-11T03:18:41.061Z,9.74
2022-10-11T03:21:43.337Z,9.66
2022-10-11T03:24:45.827Z,9.63
2022-10-11T03:27:48.008Z,9.62
2022-10-11T03:30:51.479Z,9.66
2022-10-11T03:33:53.780Z,9.64
2022-10-11T03:36:56.245Z,9.57
2022-10-11T03:39:58.617Z,9.61
2022-10-11T03:43:01.398Z,9.69
2022-10-11T03:46:04.140Z,9.78
2022-10-11T03:49:06.916Z,9.82
2022-10-11T03:52:09.368Z,9.89
2022-10-11T03:55:11.879Z,9.93
2022-10-11T03:58:14.083Z,10.02
2022-10-11T04:01:16.652Z,10.14
2022-10-11T04:04:19.267Z,10.20
2022-10-11T04:07:21.685Z,10.27
2022-10-11T04:10:25.044Z,10.37
2022-10-11T04:13:27.264Z,10.50
2022-10-11T04:16:29.716Z,10.56
2022-10-11T04:19:32.154Z,10.60
2022-10-11T04:22:34.782Z,10.63
2022-10-11T04:25:38.226Z,10.63
2022-10-11T04:28:40.866Z,10.69
2022-10-11T04:31:43.328Z,10.68
2022-10-11T04:34:45.846Z,10.68
2022-10-11T04:37:48.040Z,10.79
2022-10-11T04:40:50.879Z,10.72
2022-10-11T04:43:53.089Z,10.74
2022-10-11T04:46:55.704Z,10.69
2022-10-11T04:49:57.908Z,10.67
2022-10-11T04:53:00.360Z,10.71
2022-10-11T04:56:05.084Z,10.68
2022-10-11T04:59:07.943Z,10.67
2022-10-11T05:02:10.161Z,10.70
2022-10-11T05:05:17.365Z,10.68
2022-10-11T05:08:19.872Z,10.67
2022-10-11T05:11:22.305Z,10.66
2022-10-11T05:14:24.568Z,10.70
2022-10-11T05:17:27.071Z,10.78
2022-10-11T05:20:29.376Z,10.88
2022-10-11T05:23:32.628Z,10.95
2022-10-11T05:26:34.880Z,11.08
2022-10-11T05:29:37.367Z,11.21
2022-10-11T05:32:39.573Z,11.35
2022-10-11T05:35:42.516Z,11.55
2022-10-11T05:38:44.907Z,11.70
2022-10-11T05:41:47.564Z,11.74
2022-10-11T05:44:49.795Z,11.81
2022-10-11T05:47:52.318Z,11.91
2022-10-11T05:51:03.004Z,11.93
2022-10-11T05:54:05.453Z,12.02
2022-10-11T05:57:07.813Z,12.06
2022-10-11T06:00:11.131Z,12.18
2022-10-11T06:03:14.418Z,12.21
2022-10-11T06:06:17.170Z,12.15
2022-10-11T06:09:19.469Z,12.19
2022-10-11T06:12:21.983Z,12.20
2022-10-11T06:15:24.622Z,12.30
2022-10-11T06:18:27.130Z,12.44
2022-10-11T06:21:29.503Z,12.51
2022-10-11T06:24:31.958Z,12.64
2022-10-11T06:27:34.410Z,12.69
2022-10-11T06:30:38.303Z,12.71
2022-10-11T06:33:40.557Z,12.85
2022-10-11T06:36:43.072Z,12.96
2022-10-11T06:39:45.293Z,13.07
2022-10-11T06:42:48.716Z,13.46
2022-10-11T06:45:50.902Z,13.93
2022-10-11T06:48:56.271Z,13.84
2022-10-11T06:51:58.645Z,13.76
2022-10-11T06:55:01.153Z,13.80
2022-10-11T06:58:03.375Z,13.80
2022-10-11T07:01:10.042Z,13.94
2022-10-11T07:04:12.372Z,14.11
2022-10-11T07:07:14.895Z,14.09
2022-10-11T07:10:18.212Z,14.10
2022-10-11T07:13:20.709Z,14.06
2022-10-11T07:16:23.257Z,14.16
2022-10-11T07:19:26.117Z,14.18
2022-10-11T07:22:28.364Z,14.57
2022-10-11T07:25:30.941Z,14.77
2022-10-11T07:28:33.516Z,14.88
2022-10-11T07:31:37.089Z,15.16
2022-10-11T07:34:39.364Z,15.35
2022-10-11T07:37:41.809Z,15.76
2022-10-11T07:40:45.955Z,16.02
2022-10-11T07:43:49.690Z,16.22
2022-10-11T07:46:52.305Z,16.65
2022-10-11T07:49:57.557Z,16.87
2022-10-11T07:53:00.129Z,17.06
2022-10-11T07:56:02.973Z,17.14
2022-10-11T07:59:06.338Z,16.96
2022-10-11T08:02:11.836Z,16.91
2022-10-11T08:05:14.382Z,16.71
2022-10-11T08:08:16.606Z,16.65
2022-10-11T08:11:20.422Z,16.57
2022-10-11T08:14:22.614Z,16.37
2022-10-11T08:17:25.120Z,16.41
2022-10-11T08:20:28.362Z,16.79
2022-10-11T08:23:30.874Z,16.85
2022-10-11T08:26:33.714Z,16.72
2022-10-11T08:29:36.216Z,16.67
2022-10-11T08:32:38.498Z,16.67
2022-10-11T08:35:41.059Z,16.88
2022-10-11T08:38:43.335Z,16.81
2022-10-11T08:41:52.417Z,16.84
2022-10-11T08:45:10.581Z,17.02
2022-10-11T08:48:27.632Z,17.17
2022-10-11T08:51:40.793Z,17.29
2022-10-11T08:54:58.183Z,17.39
2022-10-11T08:58:00.901Z,17.59
2022-10-11T09:01:04.117Z,17.82
2022-10-11T09:04:06.653Z,17.81
2022-10-11T09:07:19.042Z,17.84
2022-10-11T09:10:33.721Z,17.70
2022-10-11T09:13:52.477Z,17.74
2022-10-11T09:16:54.694Z,17.72
2022-10-11T09:20:03.408Z,17.75
2022-10-11T09:23:08.643Z,17.72
2022-10-11T09:26:41.691Z,17.83
2022-10-11T09:30:02.709Z,18.09
2022-10-11T09:33:17.343Z,18.29
2022-10-11T09:36:28.913Z,18.44
2022-10-11T09:39:39.504Z,18.53
2022-10-11T09:42:41.705Z,18.32
2022-10-11T09:45:49.552Z,18.31
2022-10-11T09:48:54.579Z,18.49
2022-10-11T09:51:58.756Z,18.67
2022-10-11T09:55:02.410Z,18.25
2022-10-11T09:58:05.586Z,18.28
2022-10-11T10:01:09.109Z,18.41
2022-10-11T10:04:13.009Z,18.86
2022-10-11T10:07:15.701Z,18.97
2022-10-11T10:10:26.827Z,19.06
2022-10-11T10:13:28.973Z,19.17
2022-10-11T10:16:32.941Z,19.40
2022-10-11T10:19:47.084Z,19.43
2022-10-11T10:22:49.676Z,19.82
2022-10-11T10:25:53.029Z,20.01
2022-10-11T10:28:58.742Z,20.16
2022-10-11T10:32:14.210Z,20.44
2022-10-11T10:35:36.391Z,20.57
2022-10-11T10:38:42.964Z,20.77
2022-10-11T10:41:45.475Z,21.48
2022-10-11T10:44:51.361Z,21.75
2022-10-11T10:48:02.803Z,21.03
2022-10-11T10:51:10.463Z,20.85
2022-10-11T10:54:37.951Z,21.18
2022-10-11T10:57:59.014Z,21.23
2022-10-11T11:01:04.743Z,21.37
2022-10-11T11:04:10.101Z,21.00
2022-10-11T11:07:24.948Z,21.10
2022-10-11T11:10:33.234Z,21.23
2022-10-11T11:13:41.656Z,21.74
2022-10-11T11:17:12.534Z,21.74
2022-10-11T11:20:38.380Z,21.65
2022-10-11T11:23:40.636Z,21.48
2022-10-11T11:26:59.079Z,21.21
2022-10-11T11:30:06.535Z,21.11
2022-10-11T11:33:09.317Z,21.18
2022-10-11T11:36:13.902Z,21.25
2022-10-11T11:39:19.247Z,21.03
2022-10-11T11:42:24.583Z,20.72
2022-10-11T11:45:30.153Z,20.87
2022-10-11T11:48:32.705Z,20.71
2022-10-11T11:51:41.301Z,21.05
2022-10-11T11:54:46.619Z,21.11
2022-10-11T11:58:13.022Z,21.03
2022-10-11T12:01:26.495Z,20.94
2022-10-11T12:04:34.326Z,20.72
2022-10-11T12:07:48.054Z,20.81
2022-10-11T12:10:50.655Z,21.03
2022-10-11T12:13:53.943Z,21.03
2022-10-11T12:17:07.569Z,21.01
2022-10-11T12:20:31.543Z,20.99
2022-10-11T12:23:39.489Z,20.93
2022-10-11T12:26:43.509Z,20.81
2022-10-11T12:29:47.952Z,20.83
2022-10-11T12:32:51.152Z,20.79
2022-10-11T12:35:53.665Z,20.92
2022-10-11T12:39:14.779Z,20.69
2022-10-11T12:42:24.784Z,20.53
2022-10-11T12:45:31.239Z,20.50
2022-10-11T12:48:37.205Z,20.29
2022-10-11T12:52:00.904Z,20.33
2022-10-11T12:55:11.442Z,20.28
2022-10-11T12:58:41.203Z,19.93
2022-10-11T13:01:54.524Z,19.83
2022-10-11T13:05:18.000Z,19.59
2022-10-11T13:08:32.196Z,19.62
2022-10-11T13:11:37.231Z,19.73
2022-10-11T13:14:44.537Z,19.83
2022-10-11T13:17:48.694Z,19.83
2022-10-11T13:20:51.290Z,20.14
2022-10-11T13:24:01.561Z,20.48
2022-10-11T13:27:05.122Z,20.61
2022-10-11T13:30:11.255Z,20.73
2022-10-11T13:33:20.011Z,20.76
2022-10-11T13:36:24.612Z,20.60
2022-10-11T13:39:31.209Z,20.55
2022-10-11T13:42:33.919Z,20.46
2022-10-11T13:45:37.084Z,20.44
2022-10-11T13:48:41.018Z,20.72
2022-10-11T13:51:43.561Z,20.73
2022-10-11T13:54:57.900Z,20.63
2022-10-11T13:58:01.557Z,20.54
2022-10-11T14:01:05.655Z,20.61
2022-10-11T14:04:09.575Z,20.68
2022-10-11T14:07:33.552Z,20.80
2022-10-11T14:10:36.090Z,20.81
2022-10-11T14:13:39.772Z,20.67
2022-10-11T14:16:54.488Z,20.67
2022-10-11T14:20:22.807Z,20.61
2022-10-11T14:23:25.274Z,20.38
2022-10-11T14:26:31.257Z,20.27
2022-10-11T14:29:35.317Z,19.99
2022-10-11T14:32:37.861Z,19.71
2022-10-11T14:35:41.562Z,19.64
2022-10-11T14:38:43.803Z,19.63
2022-10-11T14:41:46.714Z,19.45
2022-10-11T14:44:48.951Z,19.30
2022-10-11T14:47:51.950Z,19.12
2022-10-11T14:50:57.439Z,19.10
2022-10-11T14:54:00.003Z,19.18
2022-10-11T14:57:03.362Z,19.31
2022-10-11T15:00:16.214Z,19.44
2022-10-11T15:03:18.507Z,19.40
2022-10-11T15:06:29.958Z,19.39
2022-10-11T15:09:32.256Z,19.33
2022-10-11T15:12:34.816Z,19.23
2022-10-11T15:15:40.789Z,19.12
2022-10-11T15:18:44.080Z,19.03
2022-10-11T15:21:46.696Z,18.97
2022-10-11T15:24:51.635Z,18.89
2022-10-11T15:27:54.100Z,18.83
2022-10-11T15:30:57.038Z,18.75
2022-10-11T15:34:01.687Z,18.68
2022-10-11T15:37:04.129Z,18.62
2022-10-11T15:40:14.807Z,18.48
2022-10-11T15:43:22.012Z,18.43
2022-10-11T15:46:26.619Z,18.41
2022-10-11T15:49:29.168Z,18.18
2022-10-11T15:52:31.570Z,18.10
2022-10-11T15:55:37.860Z,18.00
2022-10-11T15:58:40.834Z,17.90
2022-10-11T16:01:43.442Z,17.80
2022-10-11T16:04:46.011Z,17.73
2022-10-11T16:07:48.260Z,17.64
2022-10-11T16:10:53.066Z,17.53
2022-10-11T16:13:55.328Z,17.42
2022-10-11T16:17:00.419Z,17.33
2022-10-11T16:20:06.709Z,17.24
2022-10-11T16:23:28.351Z,17.19
2022-10-11T16:26:30.564Z,17.11
2022-10-11T16:29:33.150Z,17.02
2022-10-11T16:32:35.382Z,16.92
2022-10-11T16:35:41.389Z,16.86
2022-10-11T16:38:48.722Z,16.84
2022-10-11T16:41:51.347Z,16.62
2022-10-11T16:44:53.581Z,16.43
2022-10-11T16:47:56.079Z,16.27
2022-10-11T16:51:04.778Z,16.17
2022-10-11T16:54:07.381Z,16.12
2022-10-11T16:57:10.829Z,15.92
2022-10-11T17:00:15.785Z,15.79
2022-10-11T17:03:18.160Z,15.70
2022-10-11T17:06:20.747Z,15.59
2022-10-11T17:09:22.982Z,15.48
2022-10-11T17:12:25.645Z,15.45
2022-10-11T17:15:29.744Z,15.42
2022-10-11T17:18:32.376Z,15.48
2022-10-11T17:21:34.615Z,15.50
2022-10-11T17:24:38.060Z,15.59
2022-10-11T17:27:40.267Z,15.61
2022-10-11T17:30:43.104Z,15.54
2022-10-11T17:33:46.753Z,15.69
2022-10-11T17:36:49.339Z,15.64
2022-10-11T17:39:52.790Z,15.67
2022-10-11T17:42:55.367Z,15.80
2022-10-11T17:45:58.599Z,15.72
2022-10-11T17:49:04.738Z,15.73
2022-10-11T17:52:07.054Z,15.70
2022-10-11T17:55:09.703Z,15.67
2022-10-11T17:58:12.456Z,15.68
2022-10-11T18:01:17.884Z,15.80
2022-10-11T18:04:21.636Z,15.71
2022-10-11T18:07:24.208Z,15.60
2022-10-11T18:10:27.509Z,15.66
2022-10-11T18:13:29.850Z,15.61
2022-10-11T18:16:32.991Z,15.54
2022-10-11T18:19:35.240Z,15.52
2022-10-11T18:22:37.781Z,15.52
2022-10-11T18:25:40.020Z,15.40
2022-10-11T18:28:42.968Z,15.29
2022-10-11T18:31:45.252Z,15.27
2022-10-11T18:34:47.755Z,15.34
2022-10-11T18:37:50.891Z,15.43
2022-10-11T18:40:53.418Z,15.32
2022-10-11T18:43:56.481Z,15.29
2022-10-11T18:46:59.062Z,15.28
2022-10-11T18:50:01.770Z,15.24
2022-10-11T18:56:08.957Z,15.07
2022-10-11T18:59:12.244Z,14.95
2022-10-11T19:02:14.475Z,14.84
2022-10-11T19:05:17.036Z,14.79
2022-10-11T19:08:19.341Z,14.67
2022-10-11T19:11:22.764Z,14.51
2022-10-11T19:14:26.907Z,14.37
2022-10-11T19:17:29.839Z,14.28
2022-10-11T19:20:34.366Z,14.17
2022-10-11T19:23:39.421Z,14.08
2022-10-11T19:26:41.911Z,14.06
2022-10-11T19:29:44.393Z,14.06
2022-10-11T19:32:46.635Z,14.01
2022-10-11T19:35:55.650Z,14.06
2022-10-11T19:38:57.979Z,14.11
2022-10-11T19:42:01.257Z,14.14
2022-10-11T19:45:03.646Z,14.17
2022-10-11T19:48:06.108Z,14.22
2022-10-11T19:51:09.536Z,14.23
2022-10-11T19:54:12.884Z,14.28
2022-10-11T19:57:15.113Z,14.31
2022-10-11T20:00:17.776Z,14.33
2022-10-11T20:03:20.215Z,14.41
2022-10-11T20:06:23.268Z,14.41
2022-10-11T20:09:30.210Z,14.45
2022-10-11T20:12:33.529Z,14.48
2022-10-11T20:15:39.486Z,14.47
2022-10-11T20:18:41.991Z,14.39
2022-10-11T20:21:44.999Z,14.27
2022-10-11T20:24:47.251Z,14.14
2022-10-11T20:27:49.807Z,14.00
2022-10-11T20:30:52.349Z,13.83
2022-10-11T20:33:56.740Z,13.64
2022-10-11T20:36:59.073Z,13.49
2022-10-11T20:40:01.565Z,13.38
2022-10-11T20:43:03.768Z,13.30
2022-10-11T20:46:07.879Z,13.24
2022-10-11T20:49:11.846Z,13.17
2022-10-11T20:52:14.367Z,13.08
2022-10-11T20:55:16.671Z,12.98
2022-10-11T20:58:19.558Z,12.92
2022-10-11T21:01:26.344Z,12.84
2022-10-11T21:04:29.272Z,12.79
2022-10-11T21:07:31.785Z,12.75
2022-10-11T21:10:50.723Z,12.77
2022-10-11T21:13:56.454Z,12.74
2022-10-11T21:16:58.982Z,12.69
2022-10-11T21:20:03.583Z,12.67
2022-10-11T21:23:06.210Z,12.66
2022-10-11T21:26:10.276Z,12.55
2022-10-11T21:29:12.840Z,12.43
2022-10-11T21:32:15.059Z,12.37
2022-10-11T21:35:17.700Z,12.31
2022-10-11T21:38:19.887Z,12.26
2022-10-11T21:41:23.402Z,12.18
2022-10-11T21:44:25.728Z,12.09
2022-10-11T21:47:28.239Z,12.06
2022-10-11T21:50:30.635Z,12.02
2022-10-11T21:53:33.448Z,11.98
2022-10-11T21:56:35.672Z,11.92
2022-10-11T21:59:38.207Z,11.88
2022-10-11T22:02:40.459Z,11.79
2022-10-11T22:05:43.894Z,11.72
2022-10-11T22:08:46.478Z,11.68
2022-10-11T22:11:49.044Z,11.67
2022-10-11T22:14:51.179Z,11.70
2022-10-11T22:17:53.715Z,11.73
2022-10-11T22:21:01.787Z,11.59
2022-10-11T22:24:04.694Z,11.47
2022-10-11T22:27:07.243Z,11.38
2022-10-11T22:30:09.859Z,11.32
2022-10-11T22:33:12.303Z,11.23
2022-10-11T22:36:19.069Z,11.20
2022-10-11T22:39:21.215Z,11.16
2022-10-11T22:42:27.573Z,11.10
2022-10-11T22:45:30.085Z,11.11
2022-10-11T22:48:32.587Z,11.12
2022-10-11T22:51:34.834Z,11.09
2022-10-11T22:54:37.259Z,11.08
2022-10-11T22:57:39.486Z,11.07
2022-10-11T23:00:42.792Z,11.09
2022-10-11T23:03:48.409Z,11.09
2022-10-11T23:06:50.983Z,11.11
2022-10-11T23:09:53.304Z,11.11
2022-10-11T23:12:55.875Z,11.08
2022-10-11T23:15:58.100Z,11.07
2022-10-11T23:19:00.635Z,11.02
2022-10-11T23:22:03.827Z,11.00
2022-10-11T23:25:06.617Z,10.98
2022-10-11T23:28:08.907Z,10.92
2022-10-11T23:31:18.418Z,10.87
2022-10-11T23:34:20.716Z,10.82
2022-10-11T23:37:23.309Z,10.80
2022-10-11T23:40:25.628Z,10.78
2022-10-11T23:43:28.673Z,10.73
2022-10-11T23:46:30.904Z,10.70
2022-10-11T23:49:33.567Z,10.68
2022-10-11T23:52:36.088Z,10.69
2022-10-11T23:55:38.617Z,10.68
2022-10-11T23:58:41.239Z,10.69
